sensor_id;sensor_type;location;lat;lon;timestamp;P1;durP1;ratioP1;P2;durP2;ratioP2
85701;SDS011;76139;50.888;3.882;2024-02-26T00:01:30;3.55;;;1.70;;
85701;SDS011;76139;50.888;3.882;2024-02-26T00:03:57;4.95;;;2.05;;
85701;SDS011;76139;50.888;3.882;2024-02-26T00:06:24;2.90;;;1.73;;
85701;SDS011;76139;50.888;3.882;2024-02-26T00:08:50;3.63;;;2.00;;
85701;SDS011;76139;50.888;3.882;2024-02-26T00:11:16;5.00;;;2.00;;
85701;SDS011;76139;50.888;3.882;2024-02-26T00:13:42;5.07;;;2.15;;
85701;SDS011;76139;50.888;3.882;2024-02-26T00:16:08;3.92;;;1.85;;
85701;SDS011;76139;50.888;3.882;2024-02-26T00:18:33;4.22;;;1.85;;
85701;SDS011;76139;50.888;3.882;2024-02-26T00:20:59;4.90;;;1.92;;
85701;SDS011;76139;50.888;3.882;2024-02-26T00:23:25;4.18;;;1.73;;
85701;SDS011;76139;50.888;3.882;2024-02-26T00:25:52;4.35;;;2.08;;
85701;SDS011;76139;50.888;3.882;2024-02-26T00:28:18;4.05;;;1.67;;
85701;SDS011;76139;50.888;3.882;2024-02-26T00:30:45;4.82;;;2.05;;
85701;SDS011;76139;50.888;3.882;2024-02-26T00:33:11;3.88;;;2.00;;
85701;SDS011;76139;50.888;3.882;2024-02-26T00:35:36;4.15;;;2.00;;
85701;SDS011;76139;50.888;3.882;2024-02-26T00:38:02;4.38;;;1.88;;
85701;SDS011;76139;50.888;3.882;2024-02-26T00:40:29;3.70;;;1.90;;
85701;SDS011;76139;50.888;3.882;2024-02-26T00:42:55;4.85;;;2.35;;
85701;SDS011;76139;50.888;3.882;2024-02-26T00:45:24;2.50;;;1.60;;
85701;SDS011;76139;50.888;3.882;2024-02-26T00:47:49;3.58;;;1.80;;
85701;SDS011;76139;50.888;3.882;2024-02-26T00:50:15;3.28;;;1.60;;
85701;SDS011;76139;50.888;3.882;2024-02-26T00:52:41;3.70;;;1.70;;
85701;SDS011;76139;50.888;3.882;2024-02-26T00:55:06;4.35;;;2.03;;
85701;SDS011;76139;50.888;3.882;2024-02-26T00:57:33;2.88;;;1.55;;
85701;SDS011;76139;50.888;3.882;2024-02-26T00:59:58;3.63;;;1.90;;
85701;SDS011;76139;50.888;3.882;2024-02-26T01:02:25;2.63;;;1.52;;
85701;SDS011;76139;50.888;3.882;2024-02-26T01:04:51;2.67;;;1.60;;
85701;SDS011;76139;50.888;3.882;2024-02-26T01:07:17;4.35;;;2.20;;
85701;SDS011;76139;50.888;3.882;2024-02-26T01:09:44;3.53;;;1.70;;
85701;SDS011;76139;50.888;3.882;2024-02-26T01:12:09;3.60;;;1.95;;
85701;SDS011;76139;50.888;3.882;2024-02-26T01:14:35;5.32;;;2.05;;
85701;SDS011;76139;50.888;3.882;2024-02-26T01:17:01;3.92;;;2.03;;
85701;SDS011;76139;50.888;3.882;2024-02-26T01:19:27;2.72;;;1.98;;
85701;SDS011;76139;50.888;3.882;2024-02-26T01:21:53;3.58;;;1.73;;
85701;SDS011;76139;50.888;3.882;2024-02-26T01:24:19;2.38;;;1.65;;
85701;SDS011;76139;50.888;3.882;2024-02-26T01:26:45;3.20;;;1.80;;
85701;SDS011;76139;50.888;3.882;2024-02-26T01:29:11;2.03;;;1.33;;
85701;SDS011;76139;50.888;3.882;2024-02-26T01:31:37;1.58;;;1.40;;
85701;SDS011;76139;50.888;3.882;2024-02-26T01:34:03;3.47;;;1.65;;
85701;SDS011;76139;50.888;3.882;2024-02-26T01:36:29;3.00;;;1.48;;
85701;SDS011;76139;50.888;3.882;2024-02-26T01:38:55;3.28;;;1.50;;
85701;SDS011;76139;50.888;3.882;2024-02-26T01:41:20;3.08;;;1.42;;
85701;SDS011;76139;50.888;3.882;2024-02-26T01:43:46;2.83;;;1.52;;
85701;SDS011;76139;50.888;3.882;2024-02-26T01:46:13;3.72;;;1.70;;
85701;SDS011;76139;50.888;3.882;2024-02-26T01:48:42;3.28;;;1.50;;
85701;SDS011;76139;50.888;3.882;2024-02-26T01:51:09;2.90;;;1.65;;
85701;SDS011;76139;50.888;3.882;2024-02-26T01:53:37;2.33;;;1.50;;
85701;SDS011;76139;50.888;3.882;2024-02-26T01:56:03;2.97;;;1.42;;
85701;SDS011;76139;50.888;3.882;2024-02-26T01:58:29;3.00;;;1.45;;
85701;SDS011;76139;50.888;3.882;2024-02-26T02:00:56;2.60;;;1.30;;
85701;SDS011;76139;50.888;3.882;2024-02-26T02:03:23;2.40;;;1.23;;
85701;SDS011;76139;50.888;3.882;2024-02-26T02:05:49;2.80;;;1.50;;
85701;SDS011;76139;50.888;3.882;2024-02-26T02:08:15;2.03;;;1.33;;
85701;SDS011;76139;50.888;3.882;2024-02-26T02:10:41;3.03;;;1.40;;
85701;SDS011;76139;50.888;3.882;2024-02-26T02:13:07;2.67;;;1.50;;
85701;SDS011;76139;50.888;3.882;2024-02-26T02:15:33;3.05;;;1.67;;
85701;SDS011;76139;50.888;3.882;2024-02-26T02:17:59;2.42;;;1.45;;
85701;SDS011;76139;50.888;3.882;2024-02-26T02:20:25;4.30;;;1.50;;
85701;SDS011;76139;50.888;3.882;2024-02-26T02:22:57;2.50;;;1.35;;
85701;SDS011;76139;50.888;3.882;2024-02-26T02:25:23;2.67;;;1.35;;
85701;SDS011;76139;50.888;3.882;2024-02-26T02:27:48;2.75;;;1.42;;
85701;SDS011;76139;50.888;3.882;2024-02-26T02:30:15;2.78;;;1.00;;
85701;SDS011;76139;50.888;3.882;2024-02-26T02:32:41;2.42;;;1.20;;
85701;SDS011;76139;50.888;3.882;2024-02-26T02:35:07;1.50;;;1.10;;
85701;SDS011;76139;50.888;3.882;2024-02-26T02:37:33;3.35;;;1.30;;
85701;SDS011;76139;50.888;3.882;2024-02-26T02:39:59;4.53;;;1.27;;
85701;SDS011;76139;50.888;3.882;2024-02-26T02:42:25;2.22;;;1.25;;
85701;SDS011;76139;50.888;3.882;2024-02-26T02:44:51;5.60;;;1.42;;
85701;SDS011;76139;50.888;3.882;2024-02-26T02:47:17;2.83;;;1.40;;
85701;SDS011;76139;50.888;3.882;2024-02-26T02:49:43;1.90;;;1.27;;
85701;SDS011;76139;50.888;3.882;2024-02-26T02:52:09;3.28;;;1.70;;
85701;SDS011;76139;50.888;3.882;2024-02-26T02:54:34;3.70;;;1.60;;
85701;SDS011;76139;50.888;3.882;2024-02-26T02:57:02;3.00;;;1.65;;
85701;SDS011;76139;50.888;3.882;2024-02-26T02:59:28;2.67;;;1.65;;
85701;SDS011;76139;50.888;3.882;2024-02-26T03:01:54;4.18;;;1.70;;
85701;SDS011;76139;50.888;3.882;2024-02-26T03:04:19;3.45;;;1.92;;
85701;SDS011;76139;50.888;3.882;2024-02-26T03:06:45;3.78;;;1.90;;
85701;SDS011;76139;50.888;3.882;2024-02-26T03:09:11;5.47;;;1.85;;
85701;SDS011;76139;50.888;3.882;2024-02-26T03:11:36;5.28;;;2.00;;
85701;SDS011;76139;50.888;3.882;2024-02-26T03:14:02;3.72;;;1.90;;
85701;SDS011;76139;50.888;3.882;2024-02-26T03:16:29;3.55;;;1.77;;
85701;SDS011;76139;50.888;3.882;2024-02-26T03:18:55;3.53;;;2.13;;
85701;SDS011;76139;50.888;3.882;2024-02-26T03:21:21;3.42;;;1.98;;
85701;SDS011;76139;50.888;3.882;2024-02-26T03:23:46;3.55;;;2.13;;
85701;SDS011;76139;50.888;3.882;2024-02-26T03:26:12;4.15;;;2.35;;
85701;SDS011;76139;50.888;3.882;2024-02-26T03:28:40;3.95;;;2.15;;
85701;SDS011;76139;50.888;3.882;2024-02-26T03:31:06;4.03;;;2.45;;
85701;SDS011;76139;50.888;3.882;2024-02-26T03:33:31;5.72;;;2.53;;
85701;SDS011;76139;50.888;3.882;2024-02-26T03:35:57;6.57;;;2.65;;
85701;SDS011;76139;50.888;3.882;2024-02-26T03:38:23;5.18;;;3.17;;
85701;SDS011;76139;50.888;3.882;2024-02-26T03:40:48;4.65;;;2.60;;
85701;SDS011;76139;50.888;3.882;2024-02-26T03:43:14;5.20;;;3.28;;
85701;SDS011;76139;50.888;3.882;2024-02-26T03:45:40;5.63;;;3.15;;
85701;SDS011;76139;50.888;3.882;2024-02-26T03:48:06;5.35;;;3.00;;
85701;SDS011;76139;50.888;3.882;2024-02-26T03:50:31;5.30;;;3.00;;
85701;SDS011;76139;50.888;3.882;2024-02-26T03:52:57;6.10;;;3.30;;
85701;SDS011;76139;50.888;3.882;2024-02-26T03:55:23;5.40;;;3.03;;
85701;SDS011;76139;50.888;3.882;2024-02-26T03:57:52;7.00;;;3.40;;
85701;SDS011;76139;50.888;3.882;2024-02-26T04:00:18;6.38;;;3.42;;
85701;SDS011;76139;50.888;3.882;2024-02-26T04:02:44;5.18;;;3.17;;
85701;SDS011;76139;50.888;3.882;2024-02-26T04:05:11;6.32;;;3.58;;
85701;SDS011;76139;50.888;3.882;2024-02-26T04:07:38;5.85;;;3.35;;
85701;SDS011;76139;50.888;3.882;2024-02-26T04:10:08;9.32;;;3.65;;
85701;SDS011;76139;50.888;3.882;2024-02-26T04:12:34;5.18;;;2.95;;
85701;SDS011;76139;50.888;3.882;2024-02-26T04:15:00;5.97;;;3.70;;
85701;SDS011;76139;50.888;3.882;2024-02-26T04:17:26;5.85;;;3.30;;
85701;SDS011;76139;50.888;3.882;2024-02-26T04:19:51;6.72;;;3.88;;
85701;SDS011;76139;50.888;3.882;2024-02-26T04:22:17;6.70;;;3.65;;
85701;SDS011;76139;50.888;3.882;2024-02-26T04:24:43;8.32;;;4.72;;
85701;SDS011;76139;50.888;3.882;2024-02-26T04:27:08;7.95;;;4.47;;
85701;SDS011;76139;50.888;3.882;2024-02-26T04:29:34;8.00;;;4.85;;
85701;SDS011;76139;50.888;3.882;2024-02-26T04:31:59;7.15;;;4.05;;
85701;SDS011;76139;50.888;3.882;2024-02-26T04:34:25;7.40;;;4.57;;
85701;SDS011;76139;50.888;3.882;2024-02-26T04:36:51;7.03;;;4.50;;
85701;SDS011;76139;50.888;3.882;2024-02-26T04:39:16;8.50;;;5.07;;
85701;SDS011;76139;50.888;3.882;2024-02-26T04:41:42;7.05;;;4.47;;
85701;SDS011;76139;50.888;3.882;2024-02-26T04:44:08;7.40;;;4.47;;
85701;SDS011;76139;50.888;3.882;2024-02-26T04:46:34;7.22;;;4.63;;
85701;SDS011;76139;50.888;3.882;2024-02-26T04:48:59;7.72;;;4.68;;
85701;SDS011;76139;50.888;3.882;2024-02-26T04:51:25;7.93;;;4.85;;
85701;SDS011;76139;50.888;3.882;2024-02-26T04:53:51;9.02;;;5.40;;
85701;SDS011;76139;50.888;3.882;2024-02-26T04:56:20;9.20;;;5.10;;
85701;SDS011;76139;50.888;3.882;2024-02-26T04:58:46;8.60;;;5.53;;
85701;SDS011;76139;50.888;3.882;2024-02-26T05:01:11;10.07;;;6.68;;
85701;SDS011;76139;50.888;3.882;2024-02-26T05:03:37;12.60;;;6.72;;
85701;SDS011;76139;50.888;3.882;2024-02-26T05:06:03;11.18;;;5.93;;
85701;SDS011;76139;50.888;3.882;2024-02-26T05:08:30;9.48;;;5.57;;
85701;SDS011;76139;50.888;3.882;2024-02-26T05:10:56;8.90;;;5.90;;
85701;SDS011;76139;50.888;3.882;2024-02-26T05:13:22;12.20;;;6.65;;
85701;SDS011;76139;50.888;3.882;2024-02-26T05:15:47;11.30;;;6.85;;
85701;SDS011;76139;50.888;3.882;2024-02-26T05:18:15;9.27;;;6.40;;
85701;SDS011;76139;50.888;3.882;2024-02-26T05:20:40;11.23;;;7.53;;
85701;SDS011;76139;50.888;3.882;2024-02-26T05:23:06;10.95;;;6.13;;
85701;SDS011;76139;50.888;3.882;2024-02-26T05:25:32;8.60;;;6.50;;
85701;SDS011;76139;50.888;3.882;2024-02-26T05:27:57;13.50;;;7.95;;
85701;SDS011;76139;50.888;3.882;2024-02-26T05:30:23;10.10;;;6.97;;
85701;SDS011;76139;50.888;3.882;2024-02-26T05:32:49;10.27;;;7.22;;
85701;SDS011;76139;50.888;3.882;2024-02-26T05:35:15;11.65;;;7.53;;
85701;SDS011;76139;50.888;3.882;2024-02-26T05:37:41;12.32;;;7.40;;
85701;SDS011;76139;50.888;3.882;2024-02-26T05:40:06;10.93;;;7.28;;
85701;SDS011;76139;50.888;3.882;2024-02-26T05:42:32;11.57;;;7.82;;
85701;SDS011;76139;50.888;3.882;2024-02-26T05:44:58;10.48;;;7.80;;
85701;SDS011;76139;50.888;3.882;2024-02-26T05:47:24;11.50;;;7.78;;
85701;SDS011;76139;50.888;3.882;2024-02-26T05:49:49;11.50;;;7.07;;
85701;SDS011;76139;50.888;3.882;2024-02-26T05:52:15;11.80;;;7.38;;
85701;SDS011;76139;50.888;3.882;2024-02-26T05:54:41;10.80;;;7.70;;
85701;SDS011;76139;50.888;3.882;2024-02-26T05:57:06;12.00;;;7.57;;
85701;SDS011;76139;50.888;3.882;2024-02-26T05:59:32;9.68;;;7.03;;
85701;SDS011;76139;50.888;3.882;2024-02-26T06:01:58;10.50;;;7.20;;
85701;SDS011;76139;50.888;3.882;2024-02-26T06:04:24;10.35;;;6.68;;
85701;SDS011;76139;50.888;3.882;2024-02-26T06:06:49;9.60;;;6.63;;
85701;SDS011;76139;50.888;3.882;2024-02-26T06:09:15;11.95;;;7.10;;
85701;SDS011;76139;50.888;3.882;2024-02-26T06:11:41;11.68;;;7.22;;
85701;SDS011;76139;50.888;3.882;2024-02-26T06:14:06;10.20;;;6.80;;
85701;SDS011;76139;50.888;3.882;2024-02-26T06:16:32;9.93;;;6.57;;
85701;SDS011;76139;50.888;3.882;2024-02-26T06:18:58;10.00;;;6.90;;
85701;SDS011;76139;50.888;3.882;2024-02-26T06:21:25;10.55;;;6.72;;
85701;SDS011;76139;50.888;3.882;2024-02-26T06:23:51;9.30;;;6.55;;
85701;SDS011;76139;50.888;3.882;2024-02-26T06:26:17;10.07;;;7.15;;
85701;SDS011;76139;50.888;3.882;2024-02-26T06:28:42;8.57;;;6.10;;
85701;SDS011;76139;50.888;3.882;2024-02-26T06:31:08;8.32;;;5.82;;
85701;SDS011;76139;50.888;3.882;2024-02-26T06:33:34;8.90;;;5.97;;
85701;SDS011;76139;50.888;3.882;2024-02-26T06:36:00;8.73;;;5.60;;
85701;SDS011;76139;50.888;3.882;2024-02-26T06:38:25;8.75;;;5.43;;
85701;SDS011;76139;50.888;3.882;2024-02-26T06:40:51;9.18;;;6.03;;
85701;SDS011;76139;50.888;3.882;2024-02-26T06:43:17;8.38;;;5.97;;
85701;SDS011;76139;50.888;3.882;2024-02-26T06:45:42;10.13;;;6.35;;
85701;SDS011;76139;50.888;3.882;2024-02-26T06:48:08;8.35;;;5.57;;
85701;SDS011;76139;50.888;3.882;2024-02-26T06:50:34;8.13;;;5.57;;
85701;SDS011;76139;50.888;3.882;2024-02-26T06:53:00;9.18;;;5.95;;
85701;SDS011;76139;50.888;3.882;2024-02-26T06:55:26;9.85;;;6.53;;
85701;SDS011;76139;50.888;3.882;2024-02-26T06:57:52;10.98;;;6.68;;
85701;SDS011;76139;50.888;3.882;2024-02-26T07:00:17;10.05;;;6.72;;
85701;SDS011;76139;50.888;3.882;2024-02-26T07:02:43;8.85;;;6.10;;
85701;SDS011;76139;50.888;3.882;2024-02-26T07:05:09;8.65;;;6.38;;
85701;SDS011;76139;50.888;3.882;2024-02-26T07:07:35;9.20;;;6.22;;
85701;SDS011;76139;50.888;3.882;2024-02-26T07:10:01;8.52;;;6.28;;
85701;SDS011;76139;50.888;3.882;2024-02-26T07:12:29;10.05;;;7.10;;
85701;SDS011;76139;50.888;3.882;2024-02-26T07:14:55;10.25;;;7.30;;
85701;SDS011;76139;50.888;3.882;2024-02-26T07:17:21;10.02;;;6.90;;
85701;SDS011;76139;50.888;3.882;2024-02-26T07:19:46;10.75;;;7.50;;
85701;SDS011;76139;50.888;3.882;2024-02-26T07:22:12;11.63;;;7.07;;
85701;SDS011;76139;50.888;3.882;2024-02-26T07:24:38;10.63;;;7.05;;
85701;SDS011;76139;50.888;3.882;2024-02-26T07:27:04;8.30;;;5.82;;
85701;SDS011;76139;50.888;3.882;2024-02-26T07:29:30;9.30;;;6.70;;
85701;SDS011;76139;50.888;3.882;2024-02-26T07:31:56;8.93;;;6.68;;
85701;SDS011;76139;50.888;3.882;2024-02-26T07:34:23;9.52;;;6.75;;
85701;SDS011;76139;50.888;3.882;2024-02-26T07:36:52;10.23;;;7.32;;
85701;SDS011;76139;50.888;3.882;2024-02-26T07:39:19;8.68;;;6.45;;
85701;SDS011;76139;50.888;3.882;2024-02-26T07:41:44;9.20;;;6.72;;
85701;SDS011;76139;50.888;3.882;2024-02-26T07:44:13;10.55;;;7.32;;
85701;SDS011;76139;50.888;3.882;2024-02-26T07:46:39;8.80;;;6.63;;
85701;SDS011;76139;50.888;3.882;2024-02-26T07:49:04;9.68;;;7.18;;
85701;SDS011;76139;50.888;3.882;2024-02-26T07:51:30;8.77;;;6.18;;
85701;SDS011;76139;50.888;3.882;2024-02-26T07:53:56;9.00;;;6.65;;
85701;SDS011;76139;50.888;3.882;2024-02-26T07:56:22;7.50;;;5.63;;
85701;SDS011;76139;50.888;3.882;2024-02-26T07:58:48;9.38;;;5.90;;
85701;SDS011;76139;50.888;3.882;2024-02-26T08:01:14;9.35;;;6.57;;
85701;SDS011;76139;50.888;3.882;2024-02-26T08:03:40;8.93;;;6.25;;
85701;SDS011;76139;50.888;3.882;2024-02-26T08:06:07;8.38;;;5.50;;
85701;SDS011;76139;50.888;3.882;2024-02-26T08:08:33;7.82;;;5.50;;
85701;SDS011;76139;50.888;3.882;2024-02-26T08:10:59;9.52;;;6.13;;
85701;SDS011;76139;50.888;3.882;2024-02-26T08:13:25;9.13;;;5.63;;
85701;SDS011;76139;50.888;3.882;2024-02-26T08:15:51;9.50;;;5.93;;
85701;SDS011;76139;50.888;3.882;2024-02-26T08:18:17;10.85;;;6.00;;
85701;SDS011;76139;50.888;3.882;2024-02-26T08:20:44;7.95;;;5.60;;
85701;SDS011;76139;50.888;3.882;2024-02-26T08:23:09;7.78;;;5.55;;
85701;SDS011;76139;50.888;3.882;2024-02-26T08:25:38;8.90;;;6.32;;
85701;SDS011;76139;50.888;3.882;2024-02-26T08:28:04;8.68;;;6.18;;
85701;SDS011;76139;50.888;3.882;2024-02-26T08:30:30;8.82;;;5.93;;
85701;SDS011;76139;50.888;3.882;2024-02-26T08:32:56;8.95;;;6.28;;
85701;SDS011;76139;50.888;3.882;2024-02-26T08:35:22;8.88;;;5.68;;
85701;SDS011;76139;50.888;3.882;2024-02-26T08:37:47;8.45;;;6.10;;
85701;SDS011;76139;50.888;3.882;2024-02-26T08:40:14;7.97;;;5.50;;
85701;SDS011;76139;50.888;3.882;2024-02-26T08:42:40;8.75;;;5.97;;
85701;SDS011;76139;50.888;3.882;2024-02-26T08:45:05;8.38;;;5.40;;
85701;SDS011;76139;50.888;3.882;2024-02-26T08:47:32;10.18;;;5.90;;
85701;SDS011;76139;50.888;3.882;2024-02-26T08:49:58;9.13;;;5.55;;
85701;SDS011;76139;50.888;3.882;2024-02-26T08:52:23;8.98;;;5.53;;
85701;SDS011;76139;50.888;3.882;2024-02-26T08:54:50;7.45;;;5.18;;
85701;SDS011;76139;50.888;3.882;2024-02-26T08:57:16;8.23;;;5.15;;
85701;SDS011;76139;50.888;3.882;2024-02-26T08:59:42;9.57;;;5.53;;
85701;SDS011;76139;50.888;3.882;2024-02-26T09:02:08;8.55;;;5.53;;
85701;SDS011;76139;50.888;3.882;2024-02-26T09:04:34;7.95;;;5.32;;
85701;SDS011;76139;50.888;3.882;2024-02-26T09:07:00;8.20;;;5.68;;
85701;SDS011;76139;50.888;3.882;2024-02-26T09:09:27;8.63;;;5.82;;
85701;SDS011;76139;50.888;3.882;2024-02-26T09:11:52;9.70;;;5.68;;
85701;SDS011;76139;50.888;3.882;2024-02-26T09:14:20;7.93;;;5.53;;
85701;SDS011;76139;50.888;3.882;2024-02-26T09:16:46;7.10;;;4.80;;
85701;SDS011;76139;50.888;3.882;2024-02-26T09:19:13;7.05;;;5.10;;
85701;SDS011;76139;50.888;3.882;2024-02-26T09:21:46;9.93;;;6.80;;
85701;SDS011;76139;50.888;3.882;2024-02-26T09:24:12;8.05;;;5.53;;
85701;SDS011;76139;50.888;3.882;2024-02-26T09:26:38;9.43;;;5.63;;
85701;SDS011;76139;50.888;3.882;2024-02-26T09:29:04;8.75;;;6.20;;
85701;SDS011;76139;50.888;3.882;2024-02-26T09:31:30;8.40;;;5.50;;
85701;SDS011;76139;50.888;3.882;2024-02-26T09:33:56;7.57;;;4.97;;
85701;SDS011;76139;50.888;3.882;2024-02-26T09:36:22;8.38;;;5.65;;
85701;SDS011;76139;50.888;3.882;2024-02-26T09:38:47;8.55;;;5.57;;
85701;SDS011;76139;50.888;3.882;2024-02-26T09:41:16;8.18;;;4.68;;
85701;SDS011;76139;50.888;3.882;2024-02-26T09:43:43;9.40;;;5.63;;
85701;SDS011;76139;50.888;3.882;2024-02-26T09:46:13;8.20;;;5.43;;
85701;SDS011;76139;50.888;3.882;2024-02-26T09:48:40;9.07;;;5.63;;
85701;SDS011;76139;50.888;3.882;2024-02-26T09:51:08;9.18;;;5.40;;
85701;SDS011;76139;50.888;3.882;2024-02-26T09:53:35;7.65;;;5.28;;
85701;SDS011;76139;50.888;3.882;2024-02-26T09:56:05;7.78;;;4.78;;
85701;SDS011;76139;50.888;3.882;2024-02-26T09:58:32;8.80;;;5.20;;
85701;SDS011;76139;50.888;3.882;2024-02-26T10:01:00;7.93;;;5.07;;
85701;SDS011;76139;50.888;3.882;2024-02-26T10:03:30;8.05;;;4.88;;
85701;SDS011;76139;50.888;3.882;2024-02-26T10:08:31;8.52;;;4.55;;
85701;SDS011;76139;50.888;3.882;2024-02-26T10:10:57;7.10;;;4.53;;
85701;SDS011;76139;50.888;3.882;2024-02-26T10:13:23;6.82;;;4.00;;
85701;SDS011;76139;50.888;3.882;2024-02-26T10:15:49;6.40;;;4.00;;
85701;SDS011;76139;50.888;3.882;2024-02-26T10:18:15;7.35;;;4.63;;
85701;SDS011;76139;50.888;3.882;2024-02-26T10:20:40;6.55;;;3.92;;
85701;SDS011;76139;50.888;3.882;2024-02-26T10:23:06;7.32;;;4.45;;
85701;SDS011;76139;50.888;3.882;2024-02-26T10:25:32;7.15;;;3.90;;
85701;SDS011;76139;50.888;3.882;2024-02-26T10:28:01;6.55;;;3.72;;
85701;SDS011;76139;50.888;3.882;2024-02-26T10:30:27;6.72;;;4.45;;
85701;SDS011;76139;50.888;3.882;2024-02-26T10:32:54;7.13;;;4.43;;
85701;SDS011;76139;50.888;3.882;2024-02-26T10:35:20;7.28;;;4.10;;
85701;SDS011;76139;50.888;3.882;2024-02-26T10:37:46;6.30;;;3.97;;
85701;SDS011;76139;50.888;3.882;2024-02-26T10:40:13;6.95;;;4.65;;
85701;SDS011;76139;50.888;3.882;2024-02-26T10:42:40;5.93;;;4.15;;
85701;SDS011;76139;50.888;3.882;2024-02-26T10:45:07;6.65;;;4.70;;
85701;SDS011;76139;50.888;3.882;2024-02-26T10:47:36;6.65;;;4.30;;
85701;SDS011;76139;50.888;3.882;2024-02-26T10:50:03;7.88;;;5.03;;
85701;SDS011;76139;50.888;3.882;2024-02-26T10:52:31;7.70;;;4.82;;
85701;SDS011;76139;50.888;3.882;2024-02-26T10:55:01;7.13;;;4.82;;
85701;SDS011;76139;50.888;3.882;2024-02-26T10:57:40;8.52;;;5.93;;
85701;SDS011;76139;50.888;3.882;2024-02-26T11:00:10;9.02;;;6.15;;
85701;SDS011;76139;50.888;3.882;2024-02-26T11:02:39;7.95;;;5.20;;
85701;SDS011;76139;50.888;3.882;2024-02-26T11:05:06;8.80;;;5.82;;
85701;SDS011;76139;50.888;3.882;2024-02-26T11:07:32;8.00;;;5.60;;
85701;SDS011;76139;50.888;3.882;2024-02-26T11:10:00;8.55;;;5.65;;
85701;SDS011;76139;50.888;3.882;2024-02-26T11:12:28;7.93;;;5.70;;
85701;SDS011;76139;50.888;3.882;2024-02-26T11:14:55;8.63;;;5.90;;
85701;SDS011;76139;50.888;3.882;2024-02-26T11:17:24;9.75;;;5.50;;
85701;SDS011;76139;50.888;3.882;2024-02-26T11:19:53;7.82;;;5.45;;
85701;SDS011;76139;50.888;3.882;2024-02-26T11:22:20;10.07;;;6.00;;
85701;SDS011;76139;50.888;3.882;2024-02-26T11:24:47;8.23;;;5.65;;
85701;SDS011;76139;50.888;3.882;2024-02-26T11:27:14;9.32;;;5.88;;
85701;SDS011;76139;50.888;3.882;2024-02-26T11:29:44;8.57;;;5.80;;
85701;SDS011;76139;50.888;3.882;2024-02-26T11:32:14;8.48;;;6.32;;
85701;SDS011;76139;50.888;3.882;2024-02-26T11:34:40;9.52;;;5.85;;
85701;SDS011;76139;50.888;3.882;2024-02-26T11:37:11;8.10;;;5.18;;
85701;SDS011;76139;50.888;3.882;2024-02-26T11:39:37;10.30;;;6.28;;
85701;SDS011;76139;50.888;3.882;2024-02-26T11:42:08;9.02;;;6.30;;
85701;SDS011;76139;50.888;3.882;2024-02-26T11:44:37;8.50;;;5.53;;
85701;SDS011;76139;50.888;3.882;2024-02-26T11:47:10;7.97;;;5.15;;
85701;SDS011;76139;50.888;3.882;2024-02-26T11:49:37;7.50;;;5.32;;
85701;SDS011;76139;50.888;3.882;2024-02-26T11:52:04;7.28;;;4.70;;
85701;SDS011;76139;50.888;3.882;2024-02-26T11:54:46;8.38;;;5.50;;
85701;SDS011;76139;50.888;3.882;2024-02-26T11:59:47;8.35;;;5.00;;
85701;SDS011;76139;50.888;3.882;2024-02-26T12:02:37;7.03;;;5.18;;
85701;SDS011;76139;50.888;3.882;2024-02-26T12:05:05;7.93;;;4.75;;
85701;SDS011;76139;50.888;3.882;2024-02-26T12:07:47;7.28;;;4.95;;
85701;SDS011;76139;50.888;3.882;2024-02-26T12:10:21;9.20;;;5.20;;
85701;SDS011;76139;50.888;3.882;2024-02-26T12:13:16;8.68;;;5.35;;
85701;SDS011;76139;50.888;3.882;2024-02-26T12:15:46;7.28;;;5.18;;
85701;SDS011;76139;50.888;3.882;2024-02-26T12:18:23;7.70;;;4.97;;
85701;SDS011;76139;50.888;3.882;2024-02-26T12:20:59;12.80;;;5.25;;
85701;SDS011;76139;50.888;3.882;2024-02-26T12:23:29;7.60;;;5.13;;
85701;SDS011;76139;50.888;3.882;2024-02-26T12:25:58;7.40;;;4.65;;
85701;SDS011;76139;50.888;3.882;2024-02-26T12:28:28;6.25;;;4.00;;
85701;SDS011;76139;50.888;3.882;2024-02-26T12:30:54;8.07;;;4.85;;
85701;SDS011;76139;50.888;3.882;2024-02-26T12:33:20;7.50;;;4.80;;
85701;SDS011;76139;50.888;3.882;2024-02-26T12:35:51;8.02;;;5.05;;
85701;SDS011;76139;50.888;3.882;2024-02-26T12:38:18;7.18;;;4.35;;
85701;SDS011;76139;50.888;3.882;2024-02-26T12:40:44;7.10;;;4.38;;
85701;SDS011;76139;50.888;3.882;2024-02-26T12:43:10;7.78;;;4.28;;
85701;SDS011;76139;50.888;3.882;2024-02-26T12:45:42;7.65;;;4.70;;
85701;SDS011;76139;50.888;3.882;2024-02-26T12:48:12;8.35;;;4.95;;
85701;SDS011;76139;50.888;3.882;2024-02-26T12:50:38;8.32;;;5.45;;
85701;SDS011;76139;50.888;3.882;2024-02-26T12:53:04;8.38;;;5.25;;
85701;SDS011;76139;50.888;3.882;2024-02-26T12:55:31;9.95;;;6.10;;
85701;SDS011;76139;50.888;3.882;2024-02-26T12:57:59;8.25;;;5.40;;
85701;SDS011;76139;50.888;3.882;2024-02-26T13:00:26;8.68;;;4.93;;
85701;SDS011;76139;50.888;3.882;2024-02-26T13:02:53;6.95;;;4.55;;
85701;SDS011;76139;50.888;3.882;2024-02-26T13:05:20;8.02;;;5.25;;
85701;SDS011;76139;50.888;3.882;2024-02-26T13:07:47;8.10;;;5.10;;
85701;SDS011;76139;50.888;3.882;2024-02-26T13:10:13;8.95;;;6.05;;
85701;SDS011;76139;50.888;3.882;2024-02-26T13:12:46;9.38;;;5.80;;
85701;SDS011;76139;50.888;3.882;2024-02-26T13:15:16;8.68;;;5.10;;
85701;SDS011;76139;50.888;3.882;2024-02-26T13:17:47;7.63;;;4.88;;
85701;SDS011;76139;50.888;3.882;2024-02-26T13:20:24;8.57;;;5.30;;
85701;SDS011;76139;50.888;3.882;2024-02-26T13:22:51;8.55;;;5.03;;
85701;SDS011;76139;50.888;3.882;2024-02-26T13:25:25;9.55;;;5.28;;
85701;SDS011;76139;50.888;3.882;2024-02-26T13:27:51;8.02;;;5.00;;
85701;SDS011;76139;50.888;3.882;2024-02-26T13:30:17;8.40;;;4.40;;
85701;SDS011;76139;50.888;3.882;2024-02-26T13:32:44;7.07;;;4.55;;
85701;SDS011;76139;50.888;3.882;2024-02-26T13:35:12;8.68;;;4.68;;
85701;SDS011;76139;50.888;3.882;2024-02-26T13:37:38;7.53;;;4.28;;
85701;SDS011;76139;50.888;3.882;2024-02-26T13:40:05;8.20;;;4.50;;
85701;SDS011;76139;50.888;3.882;2024-02-26T13:42:33;6.25;;;3.97;;
85701;SDS011;76139;50.888;3.882;2024-02-26T13:45:00;7.30;;;4.70;;
85701;SDS011;76139;50.888;3.882;2024-02-26T13:47:26;7.65;;;4.63;;
85701;SDS011;76139;50.888;3.882;2024-02-26T13:49:52;8.80;;;5.07;;
85701;SDS011;76139;50.888;3.882;2024-02-26T13:52:18;8.63;;;5.25;;
85701;SDS011;76139;50.888;3.882;2024-02-26T13:54:45;9.38;;;5.10;;
85701;SDS011;76139;50.888;3.882;2024-02-26T13:57:11;8.52;;;4.90;;
85701;SDS011;76139;50.888;3.882;2024-02-26T13:59:37;7.90;;;5.00;;
85701;SDS011;76139;50.888;3.882;2024-02-26T14:02:06;8.13;;;4.95;;
85701;SDS011;76139;50.888;3.882;2024-02-26T14:04:32;7.78;;;4.93;;
85701;SDS011;76139;50.888;3.882;2024-02-26T14:06:58;8.18;;;4.97;;
85701;SDS011;76139;50.888;3.882;2024-02-26T14:09:24;8.55;;;5.13;;
85701;SDS011;76139;50.888;3.882;2024-02-26T14:11:49;6.95;;;4.63;;
85701;SDS011;76139;50.888;3.882;2024-02-26T14:14:15;7.65;;;4.45;;
85701;SDS011;76139;50.888;3.882;2024-02-26T14:16:41;7.88;;;5.10;;
85701;SDS011;76139;50.888;3.882;2024-02-26T14:19:07;7.60;;;4.90;;
85701;SDS011;76139;50.888;3.882;2024-02-26T14:21:33;8.88;;;5.20;;
85701;SDS011;76139;50.888;3.882;2024-02-26T14:23:58;8.90;;;5.28;;
85701;SDS011;76139;50.888;3.882;2024-02-26T14:26:24;7.50;;;5.47;;
85701;SDS011;76139;50.888;3.882;2024-02-26T14:28:50;8.93;;;5.47;;
85701;SDS011;76139;50.888;3.882;2024-02-26T14:31:19;8.35;;;5.00;;
85701;SDS011;76139;50.888;3.882;2024-02-26T14:33:44;9.68;;;6.60;;
85701;SDS011;76139;50.888;3.882;2024-02-26T14:36:10;6.93;;;4.68;;
85701;SDS011;76139;50.888;3.882;2024-02-26T14:38:36;9.05;;;5.43;;
85701;SDS011;76139;50.888;3.882;2024-02-26T14:41:03;9.20;;;5.82;;
85701;SDS011;76139;50.888;3.882;2024-02-26T14:43:29;8.93;;;5.60;;
85701;SDS011;76139;50.888;3.882;2024-02-26T14:45:57;9.90;;;5.95;;
85701;SDS011;76139;50.888;3.882;2024-02-26T14:48:24;7.60;;;4.68;;